createdAt,value
2022-07-28T00:00:04.624Z,61.00
2022-07-28T00:02:04.643Z,61.00
2022-07-28T00:04:04.621Z,61.00
2022-07-28T00:06:04.595Z,61.00
2022-07-28T00:08:04.588Z,61.00
2022-07-28T00:10:04.641Z,62.00
2022-07-28T00:12:04.688Z,62.00
2022-07-28T00:14:04.597Z,62.00
2022-07-28T00:16:04.677Z,62.00
2022-07-28T00:18:04.639Z,62.00
2022-07-28T00:20:04.668Z,63.00
2022-07-28T00:22:04.607Z,63.00
2022-07-28T00:24:04.609Z,63.00
2022-07-28T00:26:04.605Z,63.00
2022-07-28T00:28:04.616Z,63.00
2022-07-28T00:30:04.613Z,63.00
2022-07-28T00:32:04.647Z,63.00
2022-07-28T00:34:04.710Z,63.00
2022-07-28T00:36:04.599Z,63.00
2022-07-28T00:38:34.703Z,63.00
2022-07-28T00:40:34.607Z,63.00
2022-07-28T00:42:34.613Z,63.00
2022-07-28T00:44:34.721Z,63.00
2022-07-28T00:46:34.658Z,63.00
2022-07-28T00:48:34.632Z,63.00
2022-07-28T00:50:34.627Z,63.00
2022-07-28T00:52:34.601Z,63.00
2022-07-28T00:54:34.698Z,64.00
2022-07-28T00:56:34.759Z,64.00
2022-07-28T00:58:34.617Z,64.00
2022-07-28T01:00:34.794Z,64.00
2022-07-28T01:02:34.930Z,65.00
2022-07-28T01:04:34.630Z,65.00
2022-07-28T01:06:34.670Z,65.00
2022-07-28T01:08:34.629Z,65.00
2022-07-28T01:10:34.624Z,65.00
2022-07-28T01:12:34.625Z,65.00
2022-07-28T01:14:34.633Z,65.00
2022-07-28T01:16:34.669Z,65.00
2022-07-28T01:18:34.727Z,65.00
2022-07-28T01:20:34.663Z,65.00
2022-07-28T01:22:34.643Z,64.00
2022-07-28T01:24:34.690Z,65.00
2022-07-28T01:26:34.715Z,65.00
2022-07-28T01:28:34.643Z,65.00
2022-07-28T01:30:34.667Z,65.00
2022-07-28T01:32:34.651Z,65.00
2022-07-28T01:34:34.773Z,65.00
2022-07-28T01:36:34.664Z,65.00
2022-07-28T01:38:34.719Z,65.00
2022-07-28T01:40:34.654Z,65.00
2022-07-28T01:42:34.712Z,65.00
2022-07-28T01:44:34.687Z,65.00
2022-07-28T01:46:34.705Z,65.00
2022-07-28T01:48:34.740Z,65.00
2022-07-28T01:50:34.710Z,65.00
2022-07-28T01:52:34.664Z,66.00
2022-07-28T01:54:34.661Z,66.00
2022-07-28T01:56:34.673Z,66.00
2022-07-28T01:58:34.681Z,66.00
2022-07-28T02:00:34.714Z,66.00
2022-07-28T02:02:34.682Z,66.00
2022-07-28T02:04:34.804Z,66.00
2022-07-28T02:06:34.692Z,66.00
2022-07-28T02:08:34.727Z,66.00
2022-07-28T02:10:34.695Z,66.00
2022-07-28T02:12:34.696Z,66.00
2022-07-28T02:14:34.666Z,66.00
2022-07-28T02:16:34.683Z,66.00
2022-07-28T02:18:34.670Z,66.00
2022-07-28T02:20:34.685Z,66.00
2022-07-28T02:22:34.682Z,66.00
2022-07-28T02:24:34.703Z,66.00
2022-07-28T02:26:34.687Z,66.00
2022-07-28T02:28:34.695Z,67.00
2022-07-28T02:30:34.761Z,67.00
2022-07-28T02:32:34.776Z,67.00
2022-07-28T02:34:34.682Z,67.00
2022-07-28T02:37:04.745Z,66.00
2022-07-28T02:39:04.694Z,66.00
2022-07-28T02:41:04.717Z,66.00
2022-07-28T02:43:04.707Z,66.00
2022-07-28T02:45:04.689Z,66.00
2022-07-28T02:47:04.699Z,66.00
2022-07-28T02:49:04.714Z,66.00
2022-07-28T02:51:04.759Z,66.00
2022-07-28T02:53:15.713Z,67.00
2022-07-28T02:55:04.703Z,67.00
2022-07-28T02:57:04.735Z,67.00
2022-07-28T02:59:04.767Z,67.00
2022-07-28T03:01:04.780Z,67.00
2022-07-28T03:03:04.723Z,67.00
2022-07-28T03:05:07.587Z,67.00
2022-07-28T03:07:06.825Z,67.00
2022-07-28T03:09:04.713Z,68.00
2022-07-28T03:11:04.718Z,68.00
2022-07-28T03:13:04.769Z,68.00
2022-07-28T03:15:04.744Z,68.00
2022-07-28T03:17:04.782Z,68.00
2022-07-28T03:19:04.718Z,68.00
2022-07-28T03:21:04.751Z,68.00
2022-07-28T03:23:04.743Z,68.00
2022-07-28T03:25:04.731Z,68.00
2022-07-28T03:27:04.807Z,68.00
2022-07-28T03:29:04.716Z,68.00
2022-07-28T03:31:04.799Z,69.00
2022-07-28T03:33:04.746Z,69.00
2022-07-28T03:35:04.738Z,69.00
2022-07-28T03:37:04.754Z,69.00
2022-07-28T03:39:04.799Z,69.00
2022-07-28T03:41:04.797Z,70.00
2022-07-28T03:43:05.141Z,70.00
2022-07-28T03:45:04.827Z,70.00
2022-07-28T03:47:04.735Z,70.00
2022-07-28T03:49:04.803Z,70.00
2022-07-28T03:51:04.782Z,70.00
2022-07-28T03:53:04.750Z,70.00
2022-07-28T03:55:04.801Z,70.00
2022-07-28T03:57:04.906Z,71.00
2022-07-28T03:59:04.767Z,71.00
2022-07-28T04:01:04.818Z,71.00
2022-07-28T04:03:04.817Z,71.00
2022-07-28T04:05:04.868Z,71.00
2022-07-28T04:07:04.802Z,71.00
2022-07-28T04:09:04.919Z,71.00
2022-07-28T04:13:04.805Z,71.00
2022-07-28T04:15:04.810Z,71.00
2022-07-28T04:17:04.926Z,71.00
2022-07-28T04:19:09.397Z,71.00
2022-07-28T04:21:04.998Z,71.00
2022-07-28T04:23:04.757Z,71.00
2022-07-28T04:25:04.806Z,0.00
2022-07-28T04:27:04.859Z,0.00
2022-07-28T04:29:04.799Z,71.00
2022-07-28T04:31:05.026Z,71.00
2022-07-28T04:33:04.833Z,71.00
2022-07-28T04:37:27.620Z,71.00
2022-07-28T04:39:27.574Z,71.00
2022-07-28T04:41:27.683Z,71.00
2022-07-28T04:43:27.651Z,71.00
2022-07-28T04:45:27.702Z,71.00
2022-07-28T04:47:27.637Z,71.00
2022-07-28T04:49:27.687Z,71.00
2022-07-28T04:51:27.654Z,71.00
2022-07-28T04:53:27.645Z,71.00
2022-07-28T04:55:27.597Z,71.00
2022-07-28T04:57:28.611Z,71.00
2022-07-28T04:59:27.689Z,71.00
2022-07-28T05:01:28.711Z,71.00
2022-07-28T05:03:29.531Z,71.00
2022-07-28T05:05:27.626Z,71.00
2022-07-28T05:07:27.656Z,71.00
2022-07-28T05:09:27.586Z,71.00
2022-07-28T05:11:27.683Z,71.00
2022-07-28T05:13:33.569Z,71.00
2022-07-28T05:15:27.718Z,71.00
2022-07-28T05:17:27.619Z,71.00
2022-07-28T05:19:27.598Z,71.00
2022-07-28T05:21:27.754Z,71.00
2022-07-28T05:23:27.625Z,71.00
2022-07-28T05:25:27.748Z,71.00
2022-07-28T05:27:27.663Z,71.00
2022-07-28T05:29:37.690Z,71.00
2022-07-28T05:31:27.727Z,71.00
2022-07-28T05:33:30.171Z,71.00
2022-07-28T05:35:27.754Z,70.00
2022-07-28T05:37:27.664Z,70.00
2022-07-28T05:39:27.614Z,71.00
2022-07-28T05:41:27.729Z,71.00
2022-07-28T05:43:27.726Z,70.00
2022-07-28T05:45:27.691Z,70.00
2022-07-28T05:47:27.733Z,70.00
2022-07-28T05:49:27.716Z,70.00
2022-07-28T05:51:27.742Z,69.00
2022-07-28T05:53:27.770Z,69.00
2022-07-28T05:55:27.714Z,69.00
2022-07-28T05:57:27.657Z,69.00
2022-07-28T05:59:27.643Z,69.00
2022-07-28T06:01:28.025Z,69.00
2022-07-28T06:03:27.661Z,68.00
2022-07-28T06:05:59.365Z,68.00
2022-07-28T06:07:57.629Z,68.00
2022-07-28T06:09:57.635Z,68.00
2022-07-28T06:11:57.640Z,68.00
2022-07-28T06:13:57.680Z,67.00
2022-07-28T06:15:57.704Z,68.00
2022-07-28T06:17:57.646Z,68.00
2022-07-28T06:19:57.639Z,67.00
2022-07-28T06:21:57.653Z,67.00
2022-07-28T06:23:57.640Z,67.00
2022-07-28T06:25:57.691Z,66.00
2022-07-28T06:27:57.748Z,66.00
2022-07-28T06:29:57.674Z,66.00
2022-07-28T06:31:57.710Z,66.00
2022-07-28T06:33:57.642Z,66.00
2022-07-28T06:35:57.659Z,66.00
2022-07-28T06:37:57.674Z,66.00
2022-07-28T06:39:57.682Z,66.00
2022-07-28T06:41:57.660Z,66.00
2022-07-28T06:43:57.671Z,65.00
2022-07-28T06:45:57.710Z,65.00
2022-07-28T06:47:57.673Z,66.00
2022-07-28T06:49:57.699Z,66.00
2022-07-28T06:51:57.705Z,65.00
2022-07-28T06:53:57.669Z,65.00
2022-07-28T06:55:57.698Z,65.00
2022-07-28T06:57:57.666Z,65.00
2022-07-28T06:59:57.668Z,66.00
2022-07-28T07:01:57.669Z,66.00
2022-07-28T07:03:57.740Z,66.00
2022-07-28T07:05:57.678Z,66.00
2022-07-28T07:07:57.668Z,65.00
2022-07-28T07:09:57.694Z,65.00
2022-07-28T07:11:57.705Z,65.00
2022-07-28T07:13:57.700Z,65.00
2022-07-28T07:15:57.749Z,65.00
2022-07-28T07:17:57.716Z,65.00
2022-07-28T07:19:57.699Z,65.00
2022-07-28T07:21:57.798Z,64.00
2022-07-28T07:23:57.718Z,64.00
2022-07-28T07:25:57.704Z,64.00
2022-07-28T07:27:57.729Z,64.00
2022-07-28T07:29:57.699Z,63.00
2022-07-28T07:31:57.738Z,63.00
2022-07-28T07:33:58.056Z,63.00
2022-07-28T07:35:57.712Z,63.00
2022-07-28T07:37:57.691Z,63.00
2022-07-28T07:39:58.762Z,63.00
2022-07-28T07:41:57.739Z,63.00
2022-07-28T07:43:57.734Z,63.00
2022-07-28T07:45:57.749Z,62.00
2022-07-28T07:47:57.728Z,62.00
2022-07-28T07:49:57.709Z,62.00
2022-07-28T07:51:57.798Z,62.00
2022-07-28T07:53:58.784Z,60.00
2022-07-28T07:55:57.830Z,60.00
2022-07-28T07:57:57.762Z,60.00
2022-07-28T07:59:57.801Z,59.00
2022-07-28T08:01:58.872Z,59.00
2022-07-28T08:03:57.712Z,59.00
2022-07-28T08:06:27.729Z,59.00
2022-07-28T08:08:27.817Z,58.00
2022-07-28T08:10:27.756Z,58.00
2022-07-28T08:12:27.758Z,58.00
2022-07-28T08:14:27.806Z,58.00
2022-07-28T08:16:27.820Z,58.00
2022-07-28T08:18:29.028Z,57.00
2022-07-28T08:20:27.839Z,57.00
2022-07-28T08:22:27.824Z,58.00
2022-07-28T08:24:32.864Z,57.00
2022-07-28T08:26:28.809Z,57.00
2022-07-28T08:28:27.778Z,57.00
2022-07-28T08:30:32.411Z,57.00
2022-07-28T08:32:27.818Z,57.00
2022-07-28T08:34:33.148Z,57.00
2022-07-28T08:36:27.749Z,56.00
2022-07-28T08:38:27.830Z,56.00
2022-07-28T08:40:27.975Z,56.00
2022-07-28T08:42:27.874Z,56.00
2022-07-28T08:44:28.798Z,56.00
2022-07-28T08:46:27.865Z,54.00
2022-07-28T08:48:27.838Z,54.00
2022-07-28T08:50:27.885Z,55.00
2022-07-28T08:52:27.943Z,56.00
2022-07-28T08:54:27.913Z,54.00
2022-07-28T08:56:27.929Z,54.00
2022-07-28T08:58:27.880Z,54.00
2022-07-28T09:00:27.808Z,54.00
2022-07-28T09:02:27.962Z,54.00
2022-07-28T09:04:27.801Z,54.00
2022-07-28T09:06:27.923Z,53.00
2022-07-28T09:08:27.854Z,53.00
2022-07-28T09:10:27.895Z,52.00
2022-07-28T09:12:27.957Z,52.00
2022-07-28T09:14:27.891Z,53.00
2022-07-28T09:16:27.900Z,53.00
2022-07-28T09:18:27.834Z,53.00
2022-07-28T09:20:28.093Z,53.00
2022-07-28T09:22:27.855Z,52.00
2022-07-28T09:24:27.871Z,52.00
2022-07-28T09:26:28.012Z,52.00
2022-07-28T09:28:27.917Z,52.00
2022-07-28T09:30:27.859Z,51.00
2022-07-28T09:32:27.828Z,51.00
2022-07-28T09:34:27.844Z,52.00
2022-07-28T09:36:27.804Z,52.00
2022-07-28T09:38:27.856Z,53.00
2022-07-28T09:40:27.913Z,53.00
2022-07-28T09:42:27.898Z,52.00
2022-07-28T09:44:27.936Z,51.00
2022-07-28T09:46:29.368Z,51.00
2022-07-28T09:48:27.997Z,52.00
2022-07-28T09:50:27.917Z,52.00
2022-07-28T09:52:27.898Z,52.00
2022-07-28T09:54:27.921Z,52.00
2022-07-28T09:56:27.906Z,52.00
2022-07-28T09:58:27.959Z,51.00
2022-07-28T10:00:27.930Z,51.00
2022-07-28T10:02:27.916Z,51.00
2022-07-28T10:04:28.867Z,51.00
2022-07-28T10:06:28.054Z,52.00
2022-07-28T10:08:57.882Z,51.00
2022-07-28T10:10:57.941Z,52.00
2022-07-28T10:12:57.847Z,51.00
2022-07-28T10:14:57.884Z,52.00
2022-07-28T10:17:00.614Z,52.00
2022-07-28T10:18:57.928Z,51.00
2022-07-28T10:20:57.874Z,50.00
2022-07-28T10:22:57.863Z,51.00
2022-07-28T10:24:57.909Z,51.00
2022-07-28T10:26:57.959Z,51.00
2022-07-28T10:28:57.944Z,51.00
2022-07-28T10:30:58.046Z,51.00
2022-07-28T10:32:57.962Z,51.00
2022-07-28T10:34:58.012Z,52.00
2022-07-28T10:36:57.919Z,52.00
2022-07-28T10:38:57.886Z,51.00
2022-07-28T10:40:57.877Z,50.00
2022-07-28T10:42:57.887Z,50.00
2022-07-28T10:44:59.001Z,51.00
2022-07-28T10:46:58.137Z,51.00
2022-07-28T10:48:57.926Z,50.00
2022-07-28T10:50:57.907Z,51.00
2022-07-28T10:52:59.462Z,51.00
2022-07-28T10:54:57.933Z,51.00
2022-07-28T10:56:58.922Z,51.00
2022-07-28T10:59:02.768Z,51.00
2022-07-28T11:01:05.108Z,51.00
2022-07-28T11:02:57.941Z,50.00
2022-07-28T11:04:57.900Z,50.00
2022-07-28T11:06:57.945Z,51.00
2022-07-28T11:08:57.908Z,51.00
2022-07-28T11:11:08.160Z,51.00
2022-07-28T11:12:58.016Z,51.00
2022-07-28T11:14:58.084Z,51.00
2022-07-28T11:16:58.005Z,51.00
2022-07-28T11:18:57.937Z,50.00
2022-07-28T11:20:59.860Z,50.00
2022-07-28T11:22:57.979Z,50.00
2022-07-28T11:24:58.360Z,50.00
2022-07-28T11:27:01.100Z,50.00
2022-07-28T11:28:57.954Z,50.00
2022-07-28T11:30:58.182Z,49.00
2022-07-28T11:32:57.951Z,49.00
2022-07-28T11:34:57.947Z,49.00
2022-07-28T11:36:57.957Z,49.00
2022-07-28T11:38:58.305Z,49.00
2022-07-28T11:40:57.979Z,50.00
2022-07-28T11:42:57.986Z,50.00
2022-07-28T11:44:58.007Z,49.00
2022-07-28T11:46:58.054Z,49.00
2022-07-28T11:48:58.080Z,49.00
2022-07-28T11:52:58.072Z,48.00
2022-07-28T11:54:58.076Z,48.00
2022-07-28T12:01:06.457Z,48.00
2022-07-28T12:03:06.511Z,48.00
2022-07-28T12:05:06.583Z,48.00
2022-07-28T12:07:06.534Z,49.00
2022-07-28T12:09:06.565Z,48.00
2022-07-28T12:11:06.513Z,48.00
2022-07-28T12:13:06.475Z,49.00
2022-07-28T12:15:07.141Z,48.00
2022-07-28T12:17:06.522Z,47.00
2022-07-28T12:19:06.442Z,47.00
2022-07-28T12:21:06.465Z,47.00
2022-07-28T12:23:06.459Z,47.00
2022-07-28T12:25:06.477Z,47.00
2022-07-28T12:27:06.469Z,47.00
2022-07-28T12:29:08.454Z,47.00
2022-07-28T12:31:06.541Z,48.00
2022-07-28T12:33:06.473Z,48.00
2022-07-28T12:35:06.515Z,48.00
2022-07-28T12:37:06.586Z,48.00
2022-07-28T12:39:12.393Z,48.00
2022-07-28T12:41:06.501Z,48.00
2022-07-28T12:43:06.497Z,48.00
2022-07-28T12:45:06.473Z,47.00
2022-07-28T12:47:06.539Z,48.00
2022-07-28T12:49:36.573Z,48.00
2022-07-28T12:51:36.608Z,48.00
2022-07-28T12:53:36.496Z,48.00
2022-07-28T12:55:36.513Z,47.00
2022-07-28T12:57:36.478Z,47.00
2022-07-28T12:59:36.499Z,48.00
2022-07-28T13:01:36.516Z,47.00
2022-07-28T13:03:36.498Z,46.00
2022-07-28T13:05:36.528Z,45.00
2022-07-28T13:07:36.497Z,45.00
2022-07-28T13:09:36.585Z,45.00
2022-07-28T13:11:45.922Z,45.00
2022-07-28T13:13:36.645Z,46.00
2022-07-28T13:15:36.578Z,46.00
2022-07-28T13:17:36.536Z,46.00
2022-07-28T13:19:36.526Z,46.00
2022-07-28T13:21:36.629Z,45.00
2022-07-28T13:23:36.573Z,44.00
2022-07-28T13:25:36.532Z,44.00
2022-07-28T13:27:36.626Z,44.00
2022-07-28T13:29:36.524Z,45.00
2022-07-28T13:31:36.642Z,45.00
2022-07-28T13:33:36.522Z,45.00
2022-07-28T13:35:36.539Z,45.00
2022-07-28T13:37:36.598Z,45.00
2022-07-28T13:39:36.559Z,45.00
2022-07-28T13:41:57.941Z,45.00
2022-07-28T13:43:36.808Z,45.00
2022-07-28T13:45:36.627Z,45.00
2022-07-28T13:47:39.058Z,45.00
2022-07-28T13:49:36.603Z,45.00
2022-07-28T13:51:36.630Z,45.00
2022-07-28T13:53:36.547Z,45.00
2022-07-28T13:55:36.574Z,46.00
2022-07-28T13:57:36.967Z,46.00
2022-07-28T13:59:37.761Z,45.00
2022-07-28T14:01:36.591Z,45.00
2022-07-28T14:03:55.514Z,45.00
2022-07-28T14:05:36.568Z,45.00
2022-07-28T14:07:36.546Z,44.00
2022-07-28T14:09:39.334Z,44.00
2022-07-28T14:11:36.657Z,44.00
2022-07-28T14:13:38.216Z,44.00
2022-07-28T14:15:36.615Z,44.00
2022-07-28T14:17:45.286Z,44.00
2022-07-28T14:19:38.902Z,44.00
2022-07-28T14:21:36.618Z,44.00
2022-07-28T14:23:36.638Z,44.00
2022-07-28T14:25:48.624Z,44.00
2022-07-28T14:27:36.582Z,45.00
2022-07-28T14:29:36.563Z,45.00
2022-07-28T14:31:36.665Z,45.00
2022-07-28T14:33:38.459Z,45.00
2022-07-28T14:35:36.578Z,45.00
2022-07-28T14:38:11.222Z,45.00
2022-07-28T14:39:36.620Z,45.00
2022-07-28T14:41:36.597Z,45.00
2022-07-28T14:43:36.669Z,45.00
2022-07-28T14:47:44.830Z,45.00
2022-07-28T14:49:36.603Z,45.00
2022-07-28T14:52:06.618Z,45.00
2022-07-28T14:54:06.749Z,45.00
2022-07-28T14:56:06.687Z,45.00
2022-07-28T14:58:06.621Z,45.00
2022-07-28T15:00:06.629Z,46.00
2022-07-28T15:02:06.671Z,46.00
2022-07-28T15:04:06.606Z,46.00
2022-07-28T15:06:06.635Z,45.00
2022-07-28T15:08:06.647Z,45.00
2022-07-28T15:10:06.651Z,45.00
2022-07-28T15:12:06.613Z,45.00
2022-07-28T15:14:06.674Z,45.00
2022-07-28T15:16:06.746Z,45.00
2022-07-28T15:18:06.716Z,45.00
2022-07-28T15:20:06.646Z,45.00
2022-07-28T15:22:06.646Z,45.00
2022-07-28T15:24:06.636Z,45.00
2022-07-28T15:26:06.707Z,45.00
2022-07-28T15:28:06.694Z,45.00
2022-07-28T15:30:08.249Z,45.00
2022-07-28T15:32:06.745Z,45.00
2022-07-28T15:34:06.737Z,45.00
2022-07-28T15:36:06.677Z,44.00
2022-07-28T15:38:06.649Z,45.00
2022-07-28T15:40:06.751Z,44.00
2022-07-28T15:42:06.650Z,44.00
2022-07-28T15:44:06.723Z,44.00
2022-07-28T15:46:06.805Z,44.00
2022-07-28T15:48:06.747Z,44.00
2022-07-28T15:50:06.777Z,44.00
2022-07-28T15:52:06.785Z,44.00
2022-07-28T15:54:06.689Z,43.00
2022-07-28T15:56:06.723Z,44.00
2022-07-28T15:58:06.709Z,44.00
2022-07-28T16:00:06.675Z,44.00
2022-07-28T16:02:06.810Z,44.00
2022-07-28T16:04:06.747Z,44.00
2022-07-28T16:06:07.165Z,44.00
2022-07-28T16:08:06.792Z,44.00
2022-07-28T16:10:06.701Z,44.00
2022-07-28T16:12:06.731Z,45.00
2022-07-28T16:14:06.710Z,44.00
2022-07-28T16:16:06.829Z,44.00
2022-07-28T16:18:06.687Z,44.00
2022-07-28T16:20:10.223Z,44.00
2022-07-28T16:22:06.717Z,44.00
2022-07-28T16:24:06.795Z,44.00
2022-07-28T16:26:06.731Z,44.00
2022-07-28T16:28:06.826Z,44.00
2022-07-28T16:30:06.781Z,44.00
2022-07-28T16:32:06.716Z,44.00
2022-07-28T16:34:06.747Z,44.00
2022-07-28T16:36:06.814Z,43.00
2022-07-28T16:38:06.788Z,43.00
2022-07-28T16:40:06.743Z,43.00
2022-07-28T16:42:06.720Z,43.00
2022-07-28T16:44:06.699Z,44.00
2022-07-28T16:46:06.738Z,44.00
2022-07-28T16:48:06.766Z,44.00
2022-07-28T16:50:06.698Z,43.00
2022-07-28T16:52:36.792Z,44.00
2022-07-28T16:54:36.795Z,43.00
2022-07-28T16:56:36.713Z,43.00
2022-07-28T16:58:36.741Z,44.00
2022-07-28T17:00:36.755Z,43.00
2022-07-28T17:02:36.757Z,43.00
2022-07-28T17:04:36.758Z,43.00
2022-07-28T17:06:36.832Z,43.00
2022-07-28T17:08:36.811Z,43.00
2022-07-28T17:10:36.745Z,44.00
2022-07-28T17:12:36.741Z,44.00
2022-07-28T17:14:36.743Z,44.00
2022-07-28T17:16:36.785Z,44.00
2022-07-28T17:18:36.773Z,45.00
2022-07-28T17:20:36.816Z,45.00
2022-07-28T17:22:36.800Z,45.00
2022-07-28T17:24:36.805Z,45.00
2022-07-28T17:27:36.585Z,45.00
2022-07-28T17:28:36.787Z,45.00
2022-07-28T17:30:36.852Z,46.00
2022-07-28T17:32:36.773Z,45.00
2022-07-28T17:34:36.790Z,45.00
2022-07-28T17:36:36.839Z,45.00
2022-07-28T17:38:37.998Z,45.00
2022-07-28T17:40:36.899Z,45.00
2022-07-28T17:42:36.843Z,45.00
2022-07-28T17:44:36.768Z,45.00
2022-07-28T17:46:36.861Z,46.00
2022-07-28T17:48:36.867Z,45.00
2022-07-28T17:50:36.882Z,46.00
2022-07-28T17:52:36.797Z,46.00
2022-07-28T17:54:37.103Z,46.00
2022-07-28T17:56:36.763Z,46.00
2022-07-28T17:58:36.850Z,46.00
2022-07-28T18:00:36.783Z,46.00
2022-07-28T18:02:36.809Z,46.00
2022-07-28T18:04:36.789Z,46.00
2022-07-28T18:06:36.841Z,46.00
2022-07-28T18:08:36.832Z,46.00
2022-07-28T18:10:36.879Z,47.00
2022-07-28T18:12:36.876Z,47.00
2022-07-28T18:14:36.867Z,47.00
2022-07-28T18:16:36.924Z,47.00
2022-07-28T18:18:36.817Z,47.00
2022-07-28T18:20:36.838Z,47.00
2022-07-28T18:22:36.842Z,47.00
2022-07-28T18:24:36.860Z,47.00
2022-07-28T18:26:36.949Z,47.00
2022-07-28T18:28:36.946Z,48.00
2022-07-28T18:30:36.915Z,48.00
2022-07-28T18:32:36.886Z,48.00
2022-07-28T18:34:36.813Z,48.00
2022-07-28T18:36:36.924Z,48.00
2022-07-28T18:38:37.950Z,48.00
2022-07-28T18:42:38.844Z,48.00
2022-07-28T18:44:36.890Z,48.00
2022-07-28T18:46:36.950Z,48.00
2022-07-28T18:48:36.937Z,48.00
2022-07-28T18:50:41.554Z,48.00
2022-07-28T18:52:36.841Z,49.00
2022-07-28T18:55:07.002Z,49.00
2022-07-28T18:57:06.950Z,49.00
2022-07-28T18:59:06.957Z,49.00
2022-07-28T19:01:10.039Z,49.00
2022-07-28T19:03:07.080Z,49.00
2022-07-28T19:05:06.910Z,49.00
2022-07-28T19:07:07.087Z,50.00
2022-07-28T19:09:06.998Z,50.00
2022-07-28T19:13:09.155Z,50.00
2022-07-28T19:15:06.986Z,50.00
2022-07-28T19:17:06.958Z,50.00
2022-07-28T19:19:06.893Z,50.00
2022-07-28T19:22:50.826Z,50.00
2022-07-28T19:24:50.811Z,50.00
2022-07-28T19:26:50.948Z,50.00
2022-07-28T19:28:50.849Z,50.00
2022-07-28T19:30:50.960Z,50.00
2022-07-28T19:32:50.861Z,51.00
2022-07-28T19:34:50.765Z,51.00
2022-07-28T19:36:50.822Z,51.00
2022-07-28T19:38:50.820Z,51.00
2022-07-28T19:40:50.846Z,51.00
2022-07-28T19:42:50.865Z,51.00
2022-07-28T19:44:55.643Z,51.00
2022-07-28T19:46:50.797Z,51.00
2022-07-28T19:49:20.958Z,51.00
2022-07-28T19:51:20.830Z,51.00
2022-07-28T19:53:20.813Z,51.00
2022-07-28T19:55:20.864Z,51.00
2022-07-28T19:57:21.871Z,51.00
2022-07-28T19:59:20.880Z,51.00
2022-07-28T20:01:20.993Z,51.00
2022-07-28T20:04:03.280Z,51.00
2022-07-28T20:05:20.821Z,50.00
2022-07-28T20:07:20.862Z,50.00
2022-07-28T20:09:20.827Z,50.00
2022-07-28T20:11:20.885Z,50.00
2022-07-28T20:13:20.851Z,50.00
2022-07-28T20:15:20.941Z,49.00
2022-07-28T20:17:37.304Z,49.00
2022-07-28T20:19:21.031Z,49.00
2022-07-28T20:21:20.820Z,49.00
2022-07-28T20:23:20.833Z,49.00
2022-07-28T20:25:20.850Z,49.00
2022-07-28T20:27:20.898Z,49.00
2022-07-28T20:29:20.883Z,49.00
2022-07-28T20:31:20.991Z,49.00
2022-07-28T20:33:20.892Z,49.00
2022-07-28T20:35:20.978Z,49.00
2022-07-28T20:37:36.269Z,49.00
2022-07-28T20:39:42.235Z,49.00
2022-07-28T20:41:20.828Z,49.00
2022-07-28T20:43:20.970Z,49.00
2022-07-28T20:45:20.902Z,49.00
2022-07-28T20:47:20.898Z,49.00
2022-07-28T20:49:20.942Z,49.00
2022-07-28T20:51:20.841Z,49.00
2022-07-28T20:53:20.952Z,49.00
2022-07-28T20:55:20.852Z,49.00
2022-07-28T20:57:20.913Z,49.00
2022-07-28T20:59:20.882Z,49.00
2022-07-28T21:01:21.665Z,49.00
2022-07-28T21:03:20.910Z,49.00
2022-07-28T21:05:26.638Z,49.00
2022-07-28T21:08:04.927Z,49.00
2022-07-28T21:09:20.950Z,49.00
2022-07-28T21:11:23.109Z,49.00
2022-07-28T21:13:20.931Z,49.00
2022-07-28T21:15:20.952Z,49.00
2022-07-28T21:17:20.897Z,49.00
2022-07-28T21:19:20.966Z,49.00
2022-07-28T21:21:20.861Z,51.00
2022-07-28T21:23:20.959Z,51.00
2022-07-28T21:25:20.850Z,51.00
2022-07-28T21:27:22.000Z,55.00
2022-07-28T21:31:20.923Z,59.00
2022-07-28T21:33:22.665Z,59.00
2022-07-28T21:35:20.882Z,60.00
2022-07-28T21:37:20.960Z,62.00
2022-07-28T21:39:20.985Z,62.00
2022-07-28T21:41:20.902Z,63.00
2022-07-28T21:43:20.912Z,63.00
2022-07-28T21:45:20.959Z,64.00
2022-07-28T21:47:50.881Z,65.00
2022-07-28T21:49:50.861Z,67.00
2022-07-28T21:51:50.884Z,67.00
2022-07-28T21:53:50.895Z,67.00
2022-07-28T21:55:50.890Z,69.00
2022-07-28T21:57:50.883Z,70.00
2022-07-28T21:59:51.030Z,71.00
2022-07-28T22:01:50.926Z,71.00
2022-07-28T22:03:50.996Z,72.00
2022-07-28T22:05:50.890Z,72.00
2022-07-28T22:07:50.986Z,74.00
2022-07-28T22:09:50.885Z,74.00
2022-07-28T22:11:50.905Z,74.00
2022-07-28T22:13:50.981Z,74.00
2022-07-28T22:15:50.904Z,75.00
2022-07-28T22:17:50.913Z,75.00
2022-07-28T22:19:50.968Z,75.00
2022-07-28T22:21:50.893Z,75.00
2022-07-28T22:23:50.899Z,75.00
2022-07-28T22:25:50.912Z,75.00
2022-07-28T22:27:51.950Z,76.00
2022-07-28T22:29:52.039Z,76.00
2022-07-28T22:31:52.704Z,76.00
2022-07-28T22:35:50.940Z,76.00
2022-07-28T22:37:50.927Z,76.00
2022-07-28T22:39:51.236Z,76.00
2022-07-28T22:41:50.937Z,77.00
2022-07-28T22:43:50.911Z,77.00
2022-07-28T22:45:51.602Z,77.00
2022-07-28T22:47:50.907Z,78.00
2022-07-28T22:49:50.975Z,78.00
2022-07-28T22:51:50.994Z,78.00
2022-07-28T22:53:50.949Z,78.00
2022-07-28T22:55:50.911Z,78.00
2022-07-28T22:57:50.930Z,78.00
2022-07-28T22:59:50.999Z,78.00
2022-07-28T23:01:50.952Z,78.00
2022-07-28T23:03:51.013Z,77.00
2022-07-28T23:05:51.021Z,76.00
2022-07-28T23:07:57.269Z,76.00
2022-07-28T23:09:50.930Z,76.00
2022-07-28T23:11:55.750Z,76.00
2022-07-28T23:13:50.958Z,75.00
2022-07-28T23:15:50.950Z,75.00
2022-07-28T23:17:50.941Z,75.00
2022-07-28T23:19:50.940Z,75.00
2022-07-28T23:21:50.934Z,75.00
2022-07-28T23:23:51.029Z,75.00
2022-07-28T23:25:50.936Z,75.00
2022-07-28T23:27:50.952Z,75.00
2022-07-28T23:29:50.955Z,75.00
2022-07-28T23:31:51.067Z,75.00
2022-07-28T23:33:56.535Z,75.00
2022-07-28T23:35:50.955Z,75.00
2022-07-28T23:37:50.967Z,75.00
2022-07-28T23:39:50.951Z,75.00
2022-07-28T23:41:50.975Z,75.00
2022-07-28T23:44:20.959Z,75.00
2022-07-28T23:46:20.990Z,75.00
2022-07-28T23:48:20.956Z,75.00
2022-07-28T23:50:20.963Z,75.00
2022-07-28T23:52:20.955Z,75.00
2022-07-28T23:54:20.981Z,75.00
2022-07-28T23:56:20.972Z,76.00
2022-07-28T23:58:20.962Z,76.00
